Time;durP1;ratioP1;P1;durP2;ratioP2;P2;SDS_P1;SDS_P2;PMS_P1;PMS_P2;Temp;Humidity;BMP_temperature;BMP_pressure;BME280_temperature;BME280_humidity;BME280_pressure;Samples;Min_cycle;Max_cycle;Signal;HPM_P1;HPM_P2
2023/10/26 00:02:40;;;;;;;;;;;;;;;12.84;95.02;97331.34;7304240;39;19992;31
2023/10/26 00:08:16;;;;;;;;;;;;;;;12.85;94.76;97326.78;7321578;39;20774;31
2023/10/26 00:13:51;;;;;;;;;;;;;;;12.83;94.56;97327.00;7287128;39;20436;31
2023/10/26 00:19:26;;;;;;;;;;;;;;;12.84;94.63;97327.81;7287039;39;20041;31
2023/10/26 00:25:03;;;;;;;;;;;;;;;12.83;94.89;97320.75;7248352;40;20453;31
2023/10/26 00:30:37;;;;;;;;;;;;;;;12.82;94.40;97311.00;7198847;40;20449;31
2023/10/26 00:35:58;;;;;;;;;;;;;;;12.81;94.11;97320.19;7198024;40;20457;31
2023/10/26 00:41:35;;;;;;;;;;;;;;;12.79;94.09;97324.97;7220673;40;21055;31
2023/10/26 00:47:09;;;;;;;;;;;;;;;12.77;94.80;97327.09;7297538;39;20463;31
2023/10/26 00:52:45;;;;;;;;;;;;;;;12.78;94.56;97320.59;7269585;40;19993;31
2023/10/26 00:58:21;;;;;;;;;;;;;;;12.76;94.30;97331.66;7282757;40;20475;31
2023/10/26 01:03:56;;;;;;;;;;;;;;;12.76;94.06;97328.97;7261002;40;20611;31
2023/10/26 01:09:17;;;;;;;;;;;;;;;12.73;94.23;97334.81;7282084;40;20359;31
2023/10/26 01:14:52;;;;;;;;;;;;;;;12.73;94.20;97331.28;7319940;39;21131;31
2023/10/26 01:20:32;;;;;;;;;;;;;;;12.73;94.00;97333.97;7318086;39;20451;31
2023/10/26 01:26:08;;;;;;;;;;;;;;;12.70;93.84;97339.84;7077405;39;21070;31
2023/10/26 01:31:29;;;;;;;;;;;;;;;12.64;93.75;97331.56;7278313;40;20003;31
2023/10/26 01:37:05;;;;;;;;;;;;;;;12.61;94.94;97342.84;7289135;40;20424;31
2023/10/26 01:42:42;;;;;;;;;;;;;;;12.61;95.38;97331.22;7262315;39;20092;31
2023/10/26 01:48:17;;;;;;;;;;;;;;;12.60;94.90;97330.38;7247265;40;19992;31
2023/10/26 01:53:37;;;;;;;;;;;;;;;12.60;94.87;97333.09;7229189;40;20452;31
2023/10/26 01:59:13;;;;;;;;;;;;;;;12.62;94.91;97319.34;7238069;40;20020;31
2023/10/26 02:04:48;;;;;;;;;;;;;;;12.59;94.90;97334.13;7215588;40;20055;31
2023/10/26 02:10:08;;;;;;;;;;;;;;;12.58;95.24;97332.50;7208237;40;20386;31
2023/10/26 02:15:45;;;;;;;;;;;;;;;12.57;95.65;97324.59;7258275;40;20455;31
2023/10/26 02:21:05;;;;;;;;;;;;;;;12.55;95.57;97330.22;7221352;40;21849;31
2023/10/26 02:26:25;;;;;;;;;;;;;;;12.58;95.44;97331.66;7223984;40;20451;31
2023/10/26 02:32:02;;;;;;;;;;;;;;;12.53;95.73;97332.34;7218948;40;19997;31
2023/10/26 02:37:22;;;;;;;;;;;;;;;12.54;96.05;97338.56;7254229;39;20007;31
2023/10/26 02:42:42;;;;;;;;;;;;;;;12.52;95.80;97327.97;7297689;40;20564;31
2023/10/26 02:48:17;;;;;;;;;;;;;;;12.49;96.81;97333.00;7289816;39;19992;31
2023/10/26 02:53:37;;;;;;;;;;;;;;;12.50;96.54;97326.56;7306478;39;20639;31
2023/10/26 02:58:58;;;;;;;;;;;;;;;12.51;97.14;97339.84;7318380;39;19995;31
2023/10/26 03:04:35;;;;;;;;;;;;;;;12.53;97.08;97334.22;7314722;39;19993;31
2023/10/26 03:09:56;;;;;;;;;;;;;;;12.52;96.88;97332.56;7254222;39;19993;31
2023/10/26 03:15:31;;;;;;;;;;;;;;;12.58;97.56;97327.09;7237714;40;20004;31
2023/10/26 03:21:05;;;;;;;;;;;;;;;12.57;97.42;97330.84;7240707;40;20103;31
2023/10/26 03:26:25;;;;;;;;;;;;;;;12.58;96.58;97331.66;7269913;39;20471;31
2023/10/26 03:32:02;;;;;;;;;;;;;;;12.54;96.87;97330.47;7259355;40;20005;31
2023/10/26 03:37:37;;;;;;;;;;;;;;;12.59;97.50;97327.91;7211743;40;20559;31
2023/10/26 03:42:57;;;;;;;;;;;;;;;12.62;96.74;97335.56;7256834;40;20471;31
2023/10/26 03:48:17;;;;;;;;;;;;;;;12.63;96.68;97331.81;7267764;39;20073;31
2023/10/26 03:53:53;;;;;;;;;;;;;;;12.63;96.90;97335.34;7259966;40;19992;31
2023/10/26 03:59:13;;;;;;;;;;;;;;;12.65;96.65;97330.53;7247666;40;21086;31
2023/10/26 04:04:33;;;;;;;;;;;;;;;12.68;96.35;97325.75;7260697;40;21741;31
2023/10/26 04:10:07;;;;;;;;;;;;;;;12.64;96.59;97334.28;7257348;39;20462;31
2023/10/26 04:15:42;;;;;;;;;;;;;;;12.64;96.30;97331.56;7216411;40;20468;31
2023/10/26 04:21:02;;;;;;;;;;;;;;;12.63;96.34;97334.53;7198330;40;20515;31
2023/10/26 04:26:38;;;;;;;;;;;;;;;12.66;95.95;97331.38;7198105;40;20581;31
2023/10/26 04:32:13;;;;;;;;;;;;;;;12.62;96.22;97333.69;7227611;40;21190;31
2023/10/26 04:42:53;;;;;;;;;;;;;;;12.64;95.33;97338.84;7273353;39;20163;31
2023/10/26 04:48:13;;;;;;;;;;;;;;;12.61;95.86;97336.62;7254835;39;20484;31
2023/10/26 04:58:54;;;;;;;;;;;;;;;12.61;95.62;97325.81;7360359;39;20010;31
2023/10/26 05:04:15;;;;;;;;;;;;;;;12.55;95.11;97342.91;7325663;39;20040;31
2023/10/26 05:09:35;;;;;;;;;;;;;;;12.52;95.86;97330.69;7292956;39;20113;31
2023/10/26 05:15:11;;;;;;;;;;;;;;;12.52;95.23;97324.44;7277471;39;20013;31
2023/10/26 05:25:51;;;;;;;;;;;;;;;12.51;95.47;97315.50;7235744;40;20558;31
2023/10/26 05:36:31;;;;;;;;;;;;;;;12.44;94.75;97314.78;7269214;40;20291;31
2023/10/26 05:46:56;;;;;;;;;;;;;;;12.38;95.52;97295.91;7279992;39;20010;31
2023/10/26 05:57:37;;;;;;;;;;;;;;;12.34;95.11;97289.31;7309630;39;20060;31
2023/10/26 06:03:12;;;;;;;;;;;;;;;12.33;95.06;97288.47;7300988;39;20646;31
2023/10/26 06:13:53;;;;;;;;;;;;;;;12.31;94.74;97292.47;7319100;39;20007;31
2023/10/26 06:19:14;;;;;;;;;;;;;;;12.37;95.10;97294.28;7267458;40;20012;31
2023/10/26 06:24:34;;;;;;;;;;;;;;;12.39;94.51;97303.81;7244586;40;20009;31
2023/10/26 06:30:12;;;;;;;;;;;;;;;12.43;94.72;97310.41;7282460;39;20007;31
2023/10/26 06:35:32;;;;;;;;;;;;;;;12.44;94.35;97309.38;7235751;40;19993;31
2023/10/26 06:40:53;;;;;;;;;;;;;;;12.44;94.85;97314.78;7244685;39;21334;31
2023/10/26 06:46:29;;;;;;;;;;;;;;;12.45;94.55;97311.03;7332048;39;19992;31
2023/10/26 06:51:50;;;;;;;;;;;;;;;12.41;94.56;97299.03;7285692;39;20005;31
2023/10/26 06:57:10;;;;;;;;;;;;;;;12.40;94.09;97293.84;7297989;39;20423;31
2023/10/26 07:07:50;;;;;;;;;;;;;;;12.45;93.88;97304.78;7315787;39;20031;31
2023/10/26 07:13:11;;;;;;;;;;;;;;;12.47;94.11;97298.09;7313709;39;21065;31
2023/10/26 07:18:32;;;;;;;;;;;;;;;12.50;94.62;97302.25;7339963;39;19992;31
2023/10/26 07:24:08;;;;;;;;;;;;;;;12.52;93.89;97298.25;7320658;39;20010;31
2023/10/26 07:29:46;;;;;;;;;;;;;;;12.53;94.16;97290.97;7246271;40;20011;31
2023/10/26 07:35:20;;;;;;;;;;;;;;;12.51;94.08;97274.97;7197427;40;20097;31
2023/10/26 07:41:04;;;;;;;;;;;;;;;12.51;93.98;97277.69;7197589;40;20005;31
2023/10/26 07:46:38;;;;;;;;;;;;;;;12.58;94.65;97254.12;7188838;40;19993;31
2023/10/26 07:52:15;;;;;;;;;;;;;;;12.65;94.58;97262.97;7184584;40;20032;31
2023/10/26 07:57:50;;;;;;;;;;;;;;;12.73;94.00;97256.41;7178564;40;20106;31
2023/10/26 08:03:27;;;;;;;;;;;;;;;12.74;93.91;97247.25;7224552;40;19992;31
2023/10/26 08:08:47;;;;;;;;;;;;;;;12.74;94.02;97262.66;7159528;40;20161;31
2023/10/26 08:14:23;;;;;;;;;;;;;;;12.68;93.64;97267.06;7215183;40;20021;31
2023/10/26 08:19:43;;;;;;;;;;;;;;;12.68;93.56;97261.66;7196137;40;20008;31
2023/10/26 08:25:18;;;;;;;;;;;;;;;12.71;93.84;97268.50;7247057;40;21198;31
2023/10/26 08:30:55;;;;;;;;;;;;;;;12.76;93.99;97284.88;7276337;40;19992;31
2023/10/26 08:36:13;;;;;;;;;;;;;;;12.75;93.50;97310.25;7041918;39;21132;31
2023/10/26 08:41:33;;;;;;;;;;;;;;;12.66;94.24;97315.16;7378626;39;19990;31
2023/10/26 08:47:09;;;;;;;;;;;;;;;12.68;94.57;97314.94;7303517;39;20016;31
2023/10/26 08:52:29;;;;;;;;;;;;;;;12.70;94.89;97307.41;7275151;39;20096;31
2023/10/26 08:58:05;;;;;;;;;;;;;;;12.65;95.04;97322.44;7302480;39;20016;31
2023/10/26 09:03:40;;;;;;;;;;;;;;;12.64;94.57;97342.38;7259308;40;20167;31
2023/10/26 09:09:16;;;;;;;;;;;;;;;12.68;94.98;97340.06;7199706;40;20021;31
2023/10/26 09:14:37;;;;;;;;;;;;;;;12.70;94.80;97339.84;7199538;40;19994;31
2023/10/26 09:20:12;;;;;;;;;;;;;;;12.70;94.94;97342.53;7230954;40;19994;31
2023/10/26 09:25:33;;;;;;;;;;;;;;;12.68;95.55;97331.16;7260554;40;20078;31
2023/10/26 09:31:12;;;;;;;;;;;;;;;12.71;95.70;97307.19;7305187;39;20019;31
2023/10/26 09:36:49;;;;;;;;;;;;;;;12.77;95.40;97340.59;7309607;39;20002;31
2023/10/26 09:42:10;;;;;;;;;;;;;;;12.80;96.26;97326.63;7237323;40;20008;31
2023/10/26 09:47:44;;;;;;;;;;;;;;;12.81;95.51;97322.88;7197495;40;19998;31
2023/10/26 09:53:20;;;;;;;;;;;;;;;12.79;95.63;97338.50;7190614;40;20013;31
2023/10/26 09:58:56;;;;;;;;;;;;;;;12.80;96.25;97334.75;7241006;40;20054;31
2023/10/26 10:04:32;;;;;;;;;;;;;;;12.79;96.60;97312.28;7310227;39;20104;31
2023/10/26 10:15:13;;;;;;;;;;;;;;;12.91;96.38;97323.97;7325885;39;20108;31
2023/10/26 10:26:08;;;;;;;;;;;;;;;12.82;97.67;97322.62;7257691;40;20005;31
2023/10/26 10:36:50;;;;;;;;;;;;;;;12.80;98.07;97330.16;7339333;39;20027;31
2023/10/26 10:47:31;;;;;;;;;;;;;;;12.84;98.01;97301.63;7345234;39;20010;31
2023/10/26 10:53:07;;;;;;;;;;;;;;;12.77;98.92;97298.16;7280306;40;20003;31
2023/10/26 10:58:52;;;;;;;;;;;;;;;12.81;98.97;97295.84;7251324;40;20042;31
2023/10/26 11:04:27;;;;;;;;;;;;;;;12.85;98.73;97287.06;7260203;40;19997;31
2023/10/26 11:09:48;;;;;;;;;;;;;;;12.81;98.57;97285.03;7188630;40;19995;31
2023/10/26 11:15:24;;;;;;;;;;;;;;;12.86;98.77;97275.16;7198323;40;20226;31
2023/10/26 11:21:02;;;;;;;;;;;;;;;12.83;99.39;97277.50;7196078;40;19994;31
2023/10/26 11:26:23;;;;;;;;;;;;;;;12.83;99.36;97269.38;7256324;40;19992;31
2023/10/26 11:31:59;;;;;;;;;;;;;;;12.85;100.00;97259.19;7257040;40;20016;31
2023/10/26 11:37:41;;;;;;;;;;;;;;;12.85;100.00;97241.09;7237935;40;21160;31
2023/10/26 11:43:17;;;;;;;;;;;;;;;12.92;100.00;97214.78;7218023;40;19994;31
2023/10/26 11:48:38;;;;;;;;;;;;;;;12.94;100.00;97209.97;7237527;40;19993;31
2023/10/26 11:54:25;;;;;;;;;;;;;;;12.99;100.00;97214.66;7188994;40;20236;31
2023/10/26 12:00:01;;;;;;;;;;;;;;;13.03;100.00;97199.66;7204575;40;19992;31
2023/10/26 12:05:37;;;;;;;;;;;;;;;13.12;100.00;97190.16;7268053;40;20012;31
2023/10/26 12:11:15;;;;;;;;;;;;;;;13.18;100.00;97183.81;7237359;40;19993;31
2023/10/26 12:16:52;;;;;;;;;;;;;;;13.30;100.00;97179.25;7222432;40;19993;31
2023/10/26 12:22:11;;;;;;;;;;;;;;;13.35;100.00;97173.13;7201071;40;19997;31
2023/10/26 12:27:48;;;;;;;;;;;;;;;13.43;100.00;97162.78;7206676;40;19993;31
2023/10/26 12:33:09;;;;;;;;;;;;;;;13.50;100.00;97173.50;7237714;40;21085;31
2023/10/26 12:38:29;;;;;;;;;;;;;;;13.54;100.00;97163.88;7260637;40;19996;31
2023/10/26 12:44:03;;;;;;;;;;;;;;;13.58;100.00;97156.91;7246623;39;20089;31
2023/10/26 12:49:23;;;;;;;;;;;;;;;13.58;100.00;97161.50;7273453;39;20003;31
2023/10/26 12:54:59;;;;;;;;;;;;;;;13.59;100.00;97168.56;7266394;40;19992;31
2023/10/26 13:00:36;;;;;;;;;;;;;;;13.57;100.00;97157.97;7258496;40;19992;31
2023/10/26 13:05:56;;;;;;;;;;;;;;;13.56;100.00;97147.41;7264110;39;20011;31
2023/10/26 13:11:31;;;;;;;;;;;;;;;13.62;100.00;97143.72;7291680;40;19993;31
2023/10/26 13:17:08;;;;;;;;;;;;;;;13.66;100.00;97144.91;7277206;39;20003;31
2023/10/26 13:22:29;;;;;;;;;;;;;;;13.70;100.00;97140.66;7276263;39;20016;31
2023/10/26 13:27:48;;;;;;;;;;;;;;;13.76;100.00;97139.72;7288297;39;20004;31
2023/10/26 13:33:26;;;;;;;;;;;;;;;13.78;100.00;97143.81;7277501;39;20020;31
2023/10/26 13:38:45;;;;;;;;;;;;;;;13.88;100.00;97129.69;7243217;40;20038;31
2023/10/26 13:44:20;;;;;;;;;;;;;;;13.96;100.00;97118.47;7244402;40;19993;31
2023/10/26 13:49:58;;;;;;;;;;;;;;;14.05;100.00;97111.63;7258047;40;20067;31
2023/10/26 13:55:20;;;;;;;;;;;;;;;14.09;100.00;97123.62;7202563;40;20067;31
2023/10/26 14:00:54;;;;;;;;;;;;;;;14.14;100.00;97120.19;7225493;40;20008;31
2023/10/26 14:11:35;;;;;;;;;;;;;;;14.17;100.00;97104.28;7266186;39;19992;31
2023/10/26 14:16:56;;;;;;;;;;;;;;;14.23;100.00;97102.50;7250422;40;20008;31
2023/10/26 14:27:37;;;;;;;;;;;;;;;14.24;99.35;97104.16;7316245;39;20022;31
2023/10/26 14:32:58;;;;;;;;;;;;;;;14.26;99.27;97108.25;7255900;40;19992;31
2023/10/26 14:38:34;;;;;;;;;;;;;;;14.27;98.85;97106.38;7255985;40;20075;31
2023/10/26 14:44:11;;;;;;;;;;;;;;;14.28;99.30;97108.84;7202835;40;19993;31
2023/10/26 14:49:32;;;;;;;;;;;;;;;14.27;99.31;97103.66;7237233;40;19992;31
2023/10/26 14:54:52;;;;;;;;;;;;;;;14.26;98.99;97118.31;7279052;40;20011;31
2023/10/26 15:00:29;;;;;;;;;;;;;;;14.23;99.31;97116.88;7302519;39;20046;31
2023/10/26 15:06:05;;;;;;;;;;;;;;;14.21;99.10;97110.06;7294999;39;19992;31
2023/10/26 15:11:22;;;;;;;;;;;;;;;14.18;97.17;97105.94;7075397;39;20941;31
2023/10/26 15:16:58;;;;;;;;;;;;;;;14.15;97.80;97098.28;7267829;39;19992;31
2023/10/26 15:22:18;;;;;;;;;;;;;;;14.12;97.98;97095.25;7263623;39;20019;31
2023/10/26 15:27:39;;;;;;;;;;;;;;;14.08;95.91;97110.34;7274818;39;19992;31
2023/10/26 15:33:15;;;;;;;;;;;;;;;14.02;95.58;97117.53;7308470;39;19996;31
2023/10/26 15:38:40;;;;;;;;;;;;;;;13.99;95.10;97121.56;7258158;40;19999;31
2023/10/26 15:43:57;;;;;;;;;;;;;;;13.95;95.35;97125.78;7237677;40;19993;31
2023/10/26 15:49:34;;;;;;;;;;;;;;;13.89;94.28;97118.63;7252029;39;19992;31
2023/10/26 15:55:10;;;;;;;;;;;;;;;13.83;95.02;97124.16;7263417;40;20007;31
2023/10/26 16:00:46;;;;;;;;;;;;;;;13.79;94.52;97118.41;7238411;40;19993;31
2023/10/26 16:06:24;;;;;;;;;;;;;;;13.74;93.99;97133.69;7256853;40;19992;31
2023/10/26 16:11:45;;;;;;;;;;;;;;;13.69;94.15;97145.25;7222966;40;20009;31
2023/10/26 16:17:05;;;;;;;;;;;;;;;13.67;93.77;97135.72;7209989;40;21134;31
2023/10/26 16:22:42;;;;;;;;;;;;;;;13.62;93.42;97151.84;7242283;40;19993;31
2023/10/26 16:28:02;;;;;;;;;;;;;;;13.56;93.17;97150.91;7214255;40;19998;31
2023/10/26 16:33:23;;;;;;;;;;;;;;;13.58;92.96;97148.78;7252610;39;19993;31
2023/10/26 16:38:59;;;;;;;;;;;;;;;13.49;91.63;97132.09;7254263;40;20008;31
2023/10/26 16:49:25;;;;;;;;;;;;;;;13.46;91.04;97145.28;7208096;40;20009;31
2023/10/26 16:54:58;;;;;;;;;;;;;;;13.41;91.18;97153.28;7271432;40;20011;31
2023/10/26 17:05:38;;;;;;;;;;;;;;;13.40;91.68;97143.50;7361202;39;19991;31
2023/10/26 17:16:19;;;;;;;;;;;;;;;13.37;91.51;97152.91;7357361;39;20012;31
2023/10/26 17:21:55;;;;;;;;;;;;;;;13.32;91.77;97160.91;7257357;40;19993;31
2023/10/26 17:27:31;;;;;;;;;;;;;;;13.28;91.57;97153.50;7263772;39;19991;31
2023/10/26 17:33:07;;;;;;;;;;;;;;;13.25;91.57;97148.56;7258189;40;20027;31
2023/10/26 17:38:42;;;;;;;;;;;;;;;13.22;91.21;97154.41;7263785;39;19992;31
2023/10/26 17:44:03;;;;;;;;;;;;;;;13.17;91.54;97171.34;7259139;40;20003;31
2023/10/26 17:49:39;;;;;;;;;;;;;;;13.18;91.56;97178.41;7215998;40;19993;31
2023/10/26 17:55:00;;;;;;;;;;;;;;;13.17;92.23;97163.22;7254879;39;19991;31
2023/10/26 18:00:20;;;;;;;;;;;;;;;13.12;92.06;97163.09;7285101;39;20110;31
2023/10/26 18:06:02;;;;;;;;;;;;;;;13.09;91.44;97163.53;7280115;40;19992;31
2023/10/26 18:11:17;;;;;;;;;;;;;;;13.07;91.85;97171.06;7285277;39;20069;31
2023/10/26 18:16:37;;;;;;;;;;;;;;;13.04;91.57;97180.47;7303529;39;20096;31
2023/10/26 18:27:20;;;;;;;;;;;;;;;12.95;91.60;97178.31;7318887;39;21136;31
2023/10/26 18:37:44;;;;;;;;;;;;;;;12.97;91.93;97173.50;7328099;39;19990;31
2023/10/26 18:43:19;;;;;;;;;;;;;;;12.92;91.96;97160.69;7319336;39;19991;31
2023/10/26 18:48:55;;;;;;;;;;;;;;;12.89;91.62;97161.16;7246696;40;19997;31
2023/10/26 18:54:31;;;;;;;;;;;;;;;12.89;91.86;97166.56;7195675;40;20010;31
2023/10/26 19:00:07;;;;;;;;;;;;;;;12.91;92.05;97166.31;7181845;40;20005;31
2023/10/26 19:05:27;;;;;;;;;;;;;;;12.89;91.66;97160.34;7170123;40;20012;31
2023/10/26 19:10:48;;;;;;;;;;;;;;;12.85;91.76;97151.88;7259767;39;19997;31
2023/10/26 19:16:25;;;;;;;;;;;;;;;12.83;91.61;97162.06;7262867;39;20006;31
2023/10/26 19:22:01;;;;;;;;;;;;;;;12.81;91.75;97164.16;7294284;39;19992;31
2023/10/26 19:27:20;;;;;;;;;;;;;;;12.78;92.02;97169.22;7248953;40;20009;31
2023/10/26 19:38:01;;;;;;;;;;;;;;;12.78;92.26;97159.22;7286640;39;20109;31
2023/10/26 19:48:26;;;;;;;;;;;;;;;12.81;92.11;97147.94;7335702;39;20008;31
2023/10/26 19:53:47;;;;;;;;;;;;;;;12.81;92.30;97150.66;7321487;39;20065;31
2023/10/26 19:59:22;;;;;;;;;;;;;;;12.84;92.19;97143.97;7308952;39;20154;31
2023/10/26 20:04:42;;;;;;;;;;;;;;;12.83;92.18;97145.03;7279549;40;20007;31
2023/10/26 20:10:17;;;;;;;;;;;;;;;12.79;91.61;97146.53;7306035;39;20128;31
2023/10/26 20:15:54;;;;;;;;;;;;;;;12.76;91.91;97150.53;7249943;40;19992;31
2023/10/26 20:21:13;;;;;;;;;;;;;;;12.77;91.70;97144.06;7178647;40;20124;31
2023/10/26 20:31:54;;;;;;;;;;;;;;;12.78;91.62;97128.66;7224425;40;20010;31
2023/10/26 20:37:15;;;;;;;;;;;;;;;12.81;91.84;97120.91;7265364;39;19992;31
2023/10/26 20:42:51;;;;;;;;;;;;;;;12.84;92.13;97111.53;7290103;40;19992;31
2023/10/26 20:48:25;;;;;;;;;;;;;;;12.88;91.81;97110.00;7298727;39;20003;31
2023/10/26 20:53:46;;;;;;;;;;;;;;;12.88;91.78;97107.31;7276812;40;20012;31
2023/10/26 20:59:06;;;;;;;;;;;;;;;12.85;92.23;97095.09;7324111;39;20009;31
2023/10/26 21:04:42;;;;;;;;;;;;;;;12.84;91.70;97084.50;7302083;39;20068;31
2023/10/26 21:10:16;;;;;;;;;;;;;;;12.83;92.28;97086.38;7299390;39;19991;31
2023/10/26 21:15:53;;;;;;;;;;;;;;;12.83;91.87;97080.97;7199382;40;21718;31
2023/10/26 21:21:29;;;;;;;;;;;;;;;12.77;91.50;97071.06;7205445;40;20556;31
2023/10/26 21:31:53;;;;;;;;;;;;;;;12.55;92.00;97062.69;7216111;40;20005;31
2023/10/26 21:42:34;;;;;;;;;;;;;;;12.47;93.04;97048.69;7326232;39;20007;31
2023/10/26 21:53:14;;;;;;;;;;;;;;;12.51;92.72;97039.88;7309880;39;20004;31
2023/10/26 22:03:52;;;;;;;;;;;;;;;12.54;93.27;97052.13;7254125;40;20004;31
2023/10/26 22:09:12;;;;;;;;;;;;;;;12.50;93.31;97024.75;7261503;40;19992;31
2023/10/26 22:14:47;;;;;;;;;;;;;;;12.51;92.95;97022.84;7317539;39;20006;31
2023/10/26 22:20:24;;;;;;;;;;;;;;;12.43;92.77;97015.91;7341857;39;19991;31
2023/10/26 22:25:44;;;;;;;;;;;;;;;12.31;93.19;97001.56;7335313;39;20017;31
2023/10/26 22:36:26;;;;;;;;;;;;;;;12.33;93.12;96985.13;7344380;39;20030;31
2023/10/26 22:41:46;;;;;;;;;;;;;;;12.32;93.17;96987.00;7159166;39;21123;31
2023/10/26 22:47:05;;;;;;;;;;;;;;;12.19;93.19;96982.63;7359072;39;20002;31
2023/10/26 22:52:42;;;;;;;;;;;;;;;12.14;93.85;96987.91;7338918;39;19995;31
2023/10/26 22:58:17;;;;;;;;;;;;;;;12.12;93.96;96983.75;7307491;39;20011;31
2023/10/26 23:03:37;;;;;;;;;;;;;;;12.14;94.11;96989.78;7237570;40;21097;31
2023/10/26 23:09:15;;;;;;;;;;;;;;;12.14;93.45;96989.78;7276329;40;20008;31
2023/10/26 23:14:51;;;;;;;;;;;;;;;12.12;93.79;96983.75;7180864;40;19993;31
2023/10/26 23:20:27;;;;;;;;;;;;;;;12.12;93.46;96992.69;7217076;40;20005;31
2023/10/26 23:26:03;;;;;;;;;;;;;;;12.14;93.45;96985.19;7204489;40;20099;31
2023/10/26 23:31:38;;;;;;;;;;;;;;;12.18;93.73;96988.25;7250084;39;20015;31
2023/10/26 23:37:14;;;;;;;;;;;;;;;12.19;93.83;96989.91;7215351;40;19998;31
2023/10/26 23:42:50;;;;;;;;;;;;;;;12.17;94.06;96989.31;7220311;40;20021;31
2023/10/26 23:48:10;;;;;;;;;;;;;;;12.16;93.63;96990.34;7217715;40;19993;31
2023/10/26 23:53:30;;;;;;;;;;;;;;;12.14;94.19;96990.59;7216569;40;20105;31
2023/10/26 23:59:06;;;;;;;;;;;;;;;12.14;93.69;96993.31;7228609;40;20055;31
